createdAt,value
2023-03-29T00:00:09.066Z,97948.75
2023-03-29T00:02:39.182Z,97955.25
2023-03-29T00:05:07.487Z,97950.88
2023-03-29T00:07:34.841Z,97958.34
2023-03-29T00:10:04.817Z,97950.16
2023-03-29T00:12:32.289Z,97943.06
2023-03-29T00:14:59.754Z,97951.16
2023-03-29T00:17:27.212Z,97946.00
2023-03-29T00:19:54.404Z,97950.69
2023-03-29T00:22:22.080Z,97937.38
2023-03-29T00:24:52.062Z,97939.22
2023-03-29T00:27:19.386Z,97941.50
2023-03-29T00:29:46.662Z,97939.22
2023-03-29T00:32:14.553Z,97936.28
2023-03-29T00:34:42.822Z,97933.53
2023-03-29T00:37:10.248Z,97936.34
2023-03-29T00:39:38.049Z,97938.53
2023-03-29T00:42:05.504Z,97936.44
2023-03-29T00:45:06.183Z,97934.25
2023-03-29T00:47:58.008Z,97933.31
2023-03-29T00:50:54.177Z,97928.66
2023-03-29T00:53:49.167Z,97925.38
2023-03-29T00:56:25.145Z,97920.75
2023-03-29T00:59:13.898Z,97918.28
2023-03-29T01:02:14.152Z,97914.50
2023-03-29T01:05:01.467Z,97913.56
2023-03-29T01:07:36.446Z,97905.00
2023-03-29T01:10:22.544Z,97905.97
2023-03-29T01:13:06.844Z,97906.44
2023-03-29T01:15:34.809Z,97902.19
2023-03-29T01:18:02.180Z,97898.75
2023-03-29T01:20:51.151Z,97908.38
2023-03-29T01:23:38.183Z,97901.47
2023-03-29T01:26:19.039Z,97905.81
2023-03-29T01:29:07.812Z,97901.91
2023-03-29T01:31:51.227Z,97904.38
2023-03-29T01:34:34.354Z,97900.03
2023-03-29T01:37:18.084Z,97895.19
2023-03-29T01:39:46.762Z,97892.13
2023-03-29T01:42:19.790Z,97886.28
2023-03-29T01:45:48.112Z,97883.75
2023-03-29T01:48:58.897Z,97885.69
2023-03-29T01:51:37.512Z,97890.22
2023-03-29T01:54:15.431Z,97884.06
2023-03-29T01:56:46.836Z,97880.66
2023-03-29T01:59:26.316Z,97878.13
2023-03-29T02:02:00.080Z,97872.44
2023-03-29T02:04:40.471Z,97871.97
2023-03-29T02:07:10.653Z,97881.34
2023-03-29T02:09:40.452Z,97878.44
2023-03-29T02:12:10.856Z,97881.19
2023-03-29T02:14:38.973Z,97881.06
2023-03-29T02:17:19.946Z,97876.69
2023-03-29T02:19:50.665Z,97877.66
2023-03-29T02:22:29.107Z,97873.94
2023-03-29T02:24:59.277Z,97881.69
2023-03-29T02:27:30.163Z,97877.19
2023-03-29T02:29:58.422Z,97882.66
2023-03-29T02:32:41.901Z,97891.56
2023-03-29T02:35:36.351Z,97886.22
2023-03-29T02:38:11.527Z,97891.41
2023-03-29T02:40:41.947Z,97891.56
2023-03-29T02:43:11.712Z,97894.47
2023-03-29T02:45:41.642Z,97889.59
2023-03-29T02:48:14.236Z,97889.78
2023-03-29T02:50:47.163Z,97893.81
2023-03-29T02:53:20.685Z,97895.59
2023-03-29T02:55:50.177Z,97898.50
2023-03-29T02:58:17.437Z,97890.09
2023-03-29T03:00:48.746Z,97888.97
2023-03-29T03:03:16.224Z,97888.50
2023-03-29T03:05:46.094Z,97888.31
2023-03-29T03:08:14.122Z,97886.72
2023-03-29T03:10:41.460Z,97888.03
2023-03-29T03:13:09.070Z,97884.78
2023-03-29T03:15:37.375Z,97883.34
2023-03-29T03:18:05.033Z,97884.63
2023-03-29T03:20:33.496Z,97885.91
2023-03-29T03:23:03.396Z,97886.88
2023-03-29T03:25:31.727Z,97886.69
2023-03-29T03:27:59.117Z,97883.50
2023-03-29T03:30:26.322Z,97884.78
2023-03-29T03:33:12.204Z,97885.09
2023-03-29T03:36:06.524Z,97875.75
2023-03-29T03:38:37.913Z,97882.69
2023-03-29T03:41:09.816Z,97883.50
2023-03-29T03:43:37.169Z,97879.91
2023-03-29T03:46:04.854Z,97881.06
2023-03-29T03:48:32.490Z,97883.16
2023-03-29T03:51:07.161Z,97882.03
2023-03-29T03:53:35.921Z,97875.41
2023-03-29T03:56:16.381Z,97881.88
2023-03-29T03:59:19.272Z,97877.03
2023-03-29T04:02:06.912Z,97869.75
2023-03-29T04:04:36.712Z,97879.94
2023-03-29T04:07:13.154Z,97881.22
2023-03-29T04:09:59.503Z,97873.00
2023-03-29T04:12:43.154Z,97876.06
2023-03-29T04:15:12.194Z,97876.69
2023-03-29T04:17:45.013Z,97874.91
2023-03-29T04:20:24.357Z,97883.63
2023-03-29T04:22:52.760Z,97883.66
2023-03-29T04:25:22.353Z,97875.56
2023-03-29T04:27:52.377Z,97880.09
2023-03-29T04:30:38.009Z,97875.91
2023-03-29T04:33:12.794Z,97874.75
2023-03-29T04:35:42.637Z,97885.59
2023-03-29T04:38:14.108Z,97877.19
2023-03-29T04:40:44.257Z,97881.38
2023-03-29T04:43:23.989Z,97876.06
2023-03-29T04:46:00.943Z,97879.22
2023-03-29T04:48:49.823Z,97879.88
2023-03-29T04:51:18.523Z,97877.78
2023-03-29T04:53:46.398Z,97882.56
2023-03-29T04:56:13.707Z,97876.22
2023-03-29T04:59:16.175Z,97877.31
2023-03-29T05:01:43.580Z,97878.06
2023-03-29T05:04:12.857Z,97878.84
2023-03-29T05:06:49.076Z,97879.97
2023-03-29T05:09:17.136Z,97885.66
2023-03-29T05:11:53.725Z,97882.31
2023-03-29T05:14:23.747Z,97883.69
2023-03-29T05:16:50.942Z,97887.13
2023-03-29T05:19:21.794Z,97876.03
2023-03-29T05:21:51.030Z,97885.72
2023-03-29T05:24:22.495Z,97885.63
2023-03-29T05:26:51.902Z,97893.06
2023-03-29T05:29:19.786Z,97883.31
2023-03-29T05:31:53.445Z,97887.66
2023-03-29T05:34:20.884Z,97893.31
2023-03-29T05:36:52.710Z,97895.94
2023-03-29T05:39:21.172Z,97896.03
2023-03-29T05:41:48.842Z,97894.47
2023-03-29T05:44:27.628Z,97890.91
2023-03-29T05:47:02.120Z,97890.09
2023-03-29T05:49:29.370Z,97893.28
2023-03-29T05:52:04.691Z,97892.38
2023-03-29T05:54:33.456Z,97888.56
2023-03-29T05:57:01.689Z,97898.09
2023-03-29T05:59:29.780Z,97899.63
2023-03-29T06:01:57.321Z,97897.09
2023-03-29T06:04:25.448Z,97896.16
2023-03-29T06:07:19.494Z,97905.91
2023-03-29T06:10:09.698Z,97894.75
2023-03-29T06:12:39.099Z,97898.25
2023-03-29T06:15:07.331Z,97907.41
2023-03-29T06:17:40.126Z,97903.00
2023-03-29T06:20:11.425Z,97905.03
2023-03-29T06:22:42.808Z,97898.22
2023-03-29T06:25:12.384Z,97907.53
2023-03-29T06:27:41.082Z,97909.31
2023-03-29T06:30:09.568Z,97914.06
2023-03-29T06:32:37.887Z,97919.34
2023-03-29T06:35:17.303Z,97920.25
2023-03-29T06:37:50.866Z,97926.59
2023-03-29T06:40:42.152Z,97934.06
2023-03-29T06:43:10.889Z,97928.97
2023-03-29T06:45:47.972Z,97934.22
2023-03-29T06:48:30.734Z,97924.59
2023-03-29T06:50:58.032Z,97924.66
2023-03-29T06:53:29.079Z,97927.06
2023-03-29T06:56:05.323Z,97930.03
2023-03-29T06:58:41.014Z,97938.25
2023-03-29T07:01:22.936Z,97937.88
2023-03-29T07:03:56.692Z,97931.84
2023-03-29T07:06:31.492Z,97938.25
2023-03-29T07:09:01.805Z,97938.47
2023-03-29T07:11:50.418Z,97942.72
2023-03-29T07:14:28.692Z,97947.75
2023-03-29T07:16:59.366Z,97946.16
2023-03-29T07:19:30.493Z,97940.00
2023-03-29T07:22:10.026Z,97934.22
2023-03-29T07:24:46.935Z,97938.41
2023-03-29T07:27:14.762Z,97938.97
2023-03-29T07:29:42.200Z,97946.41
2023-03-29T07:32:09.675Z,97945.22
2023-03-29T07:34:43.318Z,97935.22
2023-03-29T07:37:18.503Z,97947.38
2023-03-29T07:39:47.367Z,97949.13
2023-03-29T07:42:33.558Z,97950.63
2023-03-29T07:45:01.569Z,97947.50
2023-03-29T07:47:35.284Z,97938.75
2023-03-29T07:50:04.516Z,97940.97
2023-03-29T07:52:32.862Z,97937.72
2023-03-29T07:55:00.932Z,97938.59
2023-03-29T07:57:41.687Z,97930.75
2023-03-29T08:00:17.075Z,97930.63
2023-03-29T08:02:55.192Z,97935.09
2023-03-29T08:05:37.846Z,97942.56
2023-03-29T08:08:11.046Z,97939.50
2023-03-29T08:10:48.993Z,97929.91
2023-03-29T08:13:26.686Z,97928.25
2023-03-29T08:16:12.382Z,97918.22
2023-03-29T08:18:46.226Z,97917.81
2023-03-29T08:21:14.978Z,97916.38
2023-03-29T08:23:47.074Z,97917.63
2023-03-29T08:26:24.826Z,97913.31
2023-03-29T08:28:52.394Z,97913.47
2023-03-29T08:31:21.464Z,97918.72
2023-03-29T08:33:48.924Z,97921.50
2023-03-29T08:36:36.622Z,97915.38
2023-03-29T08:39:11.176Z,97891.13
2023-03-29T08:41:58.840Z,97898.56
2023-03-29T08:45:14.848Z,97902.97
2023-03-29T08:48:01.730Z,97898.94
2023-03-29T08:50:48.091Z,97889.19
2023-03-29T08:53:31.964Z,97897.00
2023-03-29T08:56:20.803Z,97881.28
2023-03-29T08:59:33.239Z,97881.53
2023-03-29T09:02:10.925Z,97879.34
2023-03-29T09:04:42.542Z,97872.47
2023-03-29T09:07:28.568Z,97866.75
2023-03-29T09:09:57.153Z,97859.97
2023-03-29T09:12:50.811Z,97855.56
2023-03-29T09:15:29.063Z,97858.91
2023-03-29T09:18:23.070Z,97853.03
2023-03-29T09:21:06.962Z,97849.88
2023-03-29T09:24:12.294Z,97861.13
2023-03-29T09:27:00.673Z,97839.91
2023-03-29T09:29:53.139Z,97848.28
2023-03-29T09:32:33.208Z,97858.59
2023-03-29T09:35:22.275Z,97865.22
2023-03-29T09:37:54.312Z,97858.63
2023-03-29T09:40:38.017Z,97866.03
2023-03-29T09:45:43.824Z,97865.50
2023-03-29T09:48:18.465Z,97872.38
2023-03-29T09:50:52.428Z,97866.03
2023-03-29T09:53:21.915Z,97859.09
2023-03-29T09:56:00.167Z,97865.91
2023-03-29T09:58:39.076Z,97861.44
2023-03-29T10:01:10.990Z,97855.03
2023-03-29T10:03:41.210Z,97837.16
2023-03-29T10:06:14.695Z,97838.47
2023-03-29T10:08:57.728Z,97837.53
2023-03-29T10:11:37.068Z,97841.22
2023-03-29T10:14:16.522Z,97830.56
2023-03-29T10:16:46.373Z,97839.31
2023-03-29T10:19:30.386Z,97825.47
2023-03-29T10:22:18.214Z,97824.13
2023-03-29T10:24:54.329Z,97828.81
2023-03-29T10:27:29.166Z,97821.59
2023-03-29T10:30:08.115Z,97830.53
2023-03-29T10:32:37.675Z,97818.34
2023-03-29T10:35:38.273Z,97820.03
2023-03-29T10:38:12.153Z,97819.78
2023-03-29T10:40:51.844Z,97821.13
2023-03-29T10:43:38.594Z,97825.94
2023-03-29T10:46:13.256Z,97807.75
2023-03-29T10:48:46.609Z,97823.16
2023-03-29T10:51:17.117Z,97809.03
2023-03-29T10:53:44.401Z,97806.56
2023-03-29T10:56:20.164Z,97811.94
2023-03-29T10:59:23.056Z,97798.91
2023-03-29T11:02:14.746Z,97790.91
2023-03-29T11:05:32.531Z,97788.72
2023-03-29T11:08:11.658Z,97779.34
2023-03-29T11:11:06.697Z,97772.47
2023-03-29T11:13:46.571Z,97770.28
2023-03-29T11:16:39.611Z,97765.34
2023-03-29T11:19:20.706Z,97763.25
2023-03-29T11:22:25.410Z,97757.25
2023-03-29T11:25:24.706Z,97744.41
2023-03-29T11:27:57.782Z,97745.00
2023-03-29T11:31:13.486Z,97755.63
2023-03-29T11:34:22.270Z,97743.56
2023-03-29T11:37:12.408Z,97742.59
2023-03-29T11:40:12.197Z,97730.03
2023-03-29T11:42:47.319Z,97729.81
2023-03-29T11:45:47.028Z,97715.06
2023-03-29T11:48:32.583Z,97716.47
2023-03-29T11:51:13.250Z,97702.84
2023-03-29T11:54:05.381Z,97703.84
2023-03-29T11:56:47.482Z,97710.50
2023-03-29T11:59:25.474Z,97707.75
2023-03-29T12:02:02.176Z,97706.53
2023-03-29T12:04:42.789Z,97694.34
2023-03-29T12:07:39.140Z,97701.34
2023-03-29T12:10:17.910Z,97699.63
2023-03-29T12:12:55.403Z,97692.06
2023-03-29T12:15:29.441Z,97699.34
2023-03-29T12:18:42.178Z,97690.56
2023-03-29T12:21:20.149Z,97685.41
2023-03-29T12:23:49.786Z,97684.75
2023-03-29T12:26:50.766Z,97685.00
2023-03-29T12:29:39.438Z,97684.47
2023-03-29T12:32:42.452Z,97674.34
2023-03-29T12:35:59.217Z,97674.41
2023-03-29T12:38:31.081Z,97664.00
2023-03-29T12:41:22.013Z,97666.41
2023-03-29T12:44:10.234Z,97666.81
2023-03-29T12:47:02.334Z,97657.91
2023-03-29T12:49:38.486Z,97656.53
2023-03-29T12:52:35.233Z,97648.97
2023-03-29T12:55:20.912Z,97642.09
2023-03-29T12:58:10.845Z,97644.97
2023-03-29T13:00:42.263Z,97635.56
2023-03-29T13:03:30.046Z,97641.13
2023-03-29T13:06:08.666Z,97639.81
2023-03-29T13:08:44.896Z,97628.75
2023-03-29T13:11:27.414Z,97632.56
2023-03-29T13:13:55.491Z,97624.44
2023-03-29T13:16:40.637Z,97623.94
2023-03-29T13:19:23.509Z,97626.53
2023-03-29T13:22:12.712Z,97620.75
2023-03-29T13:25:20.538Z,97622.81
2023-03-29T13:28:25.497Z,97613.56
2023-03-29T13:31:39.941Z,97611.56
2023-03-29T13:34:15.920Z,97607.50
2023-03-29T13:37:10.760Z,97608.09
2023-03-29T13:39:51.509Z,97596.09
2023-03-29T13:42:37.186Z,97596.09
2023-03-29T13:45:25.296Z,97589.53
2023-03-29T13:48:25.744Z,97588.44
2023-03-29T13:51:33.983Z,97582.88
2023-03-29T13:54:15.135Z,97586.81
2023-03-29T13:57:10.018Z,97589.00
2023-03-29T14:00:23.597Z,97577.09
2023-03-29T14:03:05.472Z,97579.50
2023-03-29T14:05:40.015Z,97580.53
2023-03-29T14:08:33.314Z,97578.19
2023-03-29T14:11:05.257Z,97583.19
2023-03-29T14:13:32.675Z,97580.03
2023-03-29T14:16:10.390Z,97582.94
2023-03-29T14:18:41.876Z,97584.81
2023-03-29T14:21:12.752Z,97576.84
2023-03-29T14:23:46.702Z,97582.91
2023-03-29T14:26:24.385Z,97575.53
2023-03-29T14:28:56.635Z,97583.47
2023-03-29T14:31:37.248Z,97577.34
2023-03-29T14:34:06.754Z,97569.69
2023-03-29T14:36:34.692Z,97565.50
2023-03-29T14:39:08.366Z,97560.19
2023-03-29T14:41:38.416Z,97557.28
2023-03-29T14:44:07.821Z,97553.59
2023-03-29T14:46:36.661Z,97550.13
2023-03-29T14:49:06.170Z,97552.78
2023-03-29T14:51:36.109Z,97544.34
2023-03-29T14:54:05.676Z,97545.31
2023-03-29T14:56:34.120Z,97538.13
2023-03-29T14:59:04.979Z,97536.81
2023-03-29T15:01:32.451Z,97526.22
2023-03-29T15:04:08.088Z,97529.69
2023-03-29T15:06:50.886Z,97533.66
2023-03-29T15:09:26.685Z,97524.38
2023-03-29T15:11:56.906Z,97534.19
2023-03-29T15:14:30.100Z,97527.84
2023-03-29T15:17:04.680Z,97519.13
2023-03-29T15:19:33.019Z,97526.22
2023-03-29T15:22:10.232Z,97526.22
2023-03-29T15:24:47.641Z,97527.25
2023-03-29T15:27:19.719Z,97524.31
2023-03-29T15:29:48.472Z,97525.91
2023-03-29T15:32:34.139Z,97519.38
2023-03-29T15:35:10.798Z,97507.19
2023-03-29T15:37:38.057Z,97503.72
2023-03-29T15:40:09.844Z,97502.94
2023-03-29T15:42:37.470Z,97506.56
2023-03-29T15:45:06.480Z,97505.66
2023-03-29T15:47:34.106Z,97503.34
2023-03-29T15:50:01.430Z,97501.78
2023-03-29T15:52:28.719Z,97500.97
2023-03-29T15:54:56.214Z,97504.34
2023-03-29T15:57:23.612Z,97502.50
2023-03-29T15:59:50.936Z,97500.78
2023-03-29T16:02:22.067Z,97496.47
2023-03-29T16:04:50.984Z,97497.72
2023-03-29T16:07:20.865Z,97498.75
2023-03-29T16:09:48.136Z,97506.22
2023-03-29T16:12:16.436Z,97500.38
2023-03-29T16:14:43.784Z,97499.41
2023-03-29T16:17:11.538Z,97497.66
2023-03-29T16:19:38.864Z,97493.41
2023-03-29T16:22:07.429Z,97498.06
2023-03-29T16:24:36.355Z,97496.94
2023-03-29T16:27:04.295Z,97498.84
2023-03-29T16:29:31.996Z,97498.09
2023-03-29T16:31:59.402Z,97488.00
2023-03-29T16:34:26.848Z,97484.75
2023-03-29T16:36:54.179Z,97487.06
2023-03-29T16:39:21.579Z,97493.19
2023-03-29T16:41:50.321Z,97493.00
2023-03-29T16:44:23.853Z,97505.88
2023-03-29T16:46:57.479Z,97513.63
2023-03-29T16:49:24.993Z,97514.81
2023-03-29T16:51:52.187Z,97516.47
2023-03-29T16:54:19.398Z,97524.38
2023-03-29T16:56:47.243Z,97521.34
2023-03-29T16:59:15.417Z,97527.19
2023-03-29T17:01:42.996Z,97523.22
2023-03-29T17:04:10.493Z,97521.38
2023-03-29T17:06:38.069Z,97525.84
2023-03-29T17:09:06.228Z,97517.72
2023-03-29T17:11:34.649Z,97515.81
2023-03-29T17:14:02.061Z,97517.91
2023-03-29T17:16:29.447Z,97520.84
2023-03-29T17:19:00.498Z,97516.09
2023-03-29T17:21:29.342Z,97514.53
2023-03-29T17:23:56.680Z,97530.69
2023-03-29T17:26:24.165Z,97530.41
2023-03-29T17:28:51.601Z,97534.19
2023-03-29T17:31:19.488Z,97534.34
2023-03-29T17:33:47.685Z,97538.31
2023-03-29T17:36:15.210Z,97538.25
2023-03-29T17:38:43.164Z,97534.53
2023-03-29T17:41:11.144Z,97540.53
2023-03-29T17:43:38.424Z,97538.63
2023-03-29T17:46:06.225Z,97543.97
2023-03-29T17:48:34.010Z,97541.44
2023-03-29T17:51:01.281Z,97549.50
2023-03-29T17:53:28.586Z,97551.16
2023-03-29T17:55:55.800Z,97552.53
2023-03-29T17:58:23.044Z,97551.63
2023-03-29T18:00:50.524Z,97551.22
2023-03-29T18:03:17.892Z,97555.28
2023-03-29T18:05:45.598Z,97550.47
2023-03-29T18:08:13.738Z,97549.81
2023-03-29T18:10:41.229Z,97552.75
2023-03-29T18:13:11.399Z,97552.84
2023-03-29T18:15:38.695Z,97549.50
2023-03-29T18:18:06.367Z,97548.91
2023-03-29T18:20:33.657Z,97548.59
2023-03-29T18:23:00.936Z,97542.25
2023-03-29T18:25:29.556Z,97548.75
2023-03-29T18:27:56.816Z,97552.31
2023-03-29T18:30:24.065Z,97557.56
2023-03-29T18:32:51.340Z,97564.13
2023-03-29T18:35:18.728Z,97568.09
2023-03-29T18:37:46.583Z,97577.28
2023-03-29T18:40:15.727Z,97573.41
2023-03-29T18:42:43.092Z,97563.72
2023-03-29T18:45:11.270Z,97558.09
2023-03-29T18:47:38.596Z,97552.53
2023-03-29T18:50:06.760Z,97561.94
2023-03-29T18:52:34.046Z,97547.78
2023-03-29T18:55:01.463Z,97548.59
2023-03-29T18:57:28.826Z,97536.31
2023-03-29T18:59:56.624Z,97541.75
2023-03-29T19:02:24.021Z,97552.34
2023-03-29T19:04:51.312Z,97551.31
2023-03-29T19:07:19.027Z,97553.53
2023-03-29T19:09:46.197Z,97548.91
2023-03-29T19:12:13.531Z,97550.34
2023-03-29T19:14:40.947Z,97554.25
2023-03-29T19:17:08.170Z,97539.53
2023-03-29T19:19:35.458Z,97544.69
2023-03-29T19:22:03.233Z,97541.13
2023-03-29T19:24:30.654Z,97546.72
2023-03-29T19:26:58.349Z,97543.38
2023-03-29T19:29:26.280Z,97540.81
2023-03-29T19:31:54.725Z,97537.78
2023-03-29T19:34:23.903Z,97547.28
2023-03-29T19:36:53.526Z,97540.78
2023-03-29T19:39:21.635Z,97538.41
2023-03-29T19:41:48.947Z,97539.44
2023-03-29T19:44:16.218Z,97536.16
2023-03-29T19:46:43.529Z,97527.34
2023-03-29T19:49:13.636Z,97536.72
2023-03-29T19:51:42.217Z,97542.06
2023-03-29T19:54:12.815Z,97539.25
2023-03-29T19:56:40.898Z,97539.09
2023-03-29T19:59:11.074Z,97539.56
2023-03-29T20:01:40.680Z,97537.47
2023-03-29T20:04:08.239Z,97533.25
2023-03-29T20:06:35.742Z,97537.63
2023-03-29T20:09:05.235Z,97529.50
2023-03-29T20:11:32.543Z,97532.72
2023-03-29T20:14:00.031Z,97532.09
2023-03-29T20:16:27.595Z,97529.47
2023-03-29T20:18:56.303Z,97524.56
2023-03-29T20:21:23.543Z,97524.84
2023-03-29T20:23:50.886Z,97521.84
2023-03-29T20:26:18.371Z,97517.00
2023-03-29T20:28:45.858Z,97521.81
2023-03-29T20:31:13.310Z,97514.97
2023-03-29T20:33:41.537Z,97516.44
2023-03-29T20:36:09.135Z,97512.59
2023-03-29T20:38:36.882Z,97512.53
2023-03-29T20:41:05.740Z,97510.72
2023-03-29T20:43:37.695Z,97505.31
2023-03-29T20:46:14.563Z,97507.63
2023-03-29T20:48:54.599Z,97507.41
2023-03-29T20:51:30.338Z,97503.94
2023-03-29T20:54:06.116Z,97501.88
2023-03-29T20:56:38.965Z,97502.22
2023-03-29T20:59:10.861Z,97499.41
2023-03-29T21:01:41.066Z,97496.50
2023-03-29T21:04:09.301Z,97506.69
2023-03-29T21:06:39.521Z,97506.22
2023-03-29T21:09:07.387Z,97508.25
2023-03-29T21:11:34.582Z,97502.38
2023-03-29T21:14:02.687Z,97511.38
2023-03-29T21:16:30.039Z,97509.50
2023-03-29T21:18:57.329Z,97499.84
2023-03-29T21:21:24.712Z,97506.28
2023-03-29T21:23:51.973Z,97502.63
2023-03-29T21:26:19.198Z,97504.50
2023-03-29T21:28:48.666Z,97503.13
2023-03-29T21:31:16.085Z,97501.66
2023-03-29T21:33:43.355Z,97496.09
2023-03-29T21:36:10.853Z,97496.19
2023-03-29T21:38:38.085Z,97490.63
2023-03-29T21:41:06.891Z,97494.16
2023-03-29T21:43:34.112Z,97488.91
2023-03-29T21:46:01.520Z,97487.75
2023-03-29T21:48:29.102Z,97488.88
2023-03-29T21:50:56.352Z,97486.09
2023-03-29T21:53:24.646Z,97485.88
2023-03-29T21:55:52.733Z,97489.44
2023-03-29T21:58:20.565Z,97486.00
2023-03-29T22:00:48.258Z,97487.16
2023-03-29T22:03:16.743Z,97488.06
2023-03-29T22:05:54.597Z,97485.75
2023-03-29T22:08:26.365Z,97487.19
2023-03-29T22:10:56.709Z,97486.94
2023-03-29T22:13:27.057Z,97479.97
2023-03-29T22:16:03.905Z,97485.41
2023-03-29T22:18:43.053Z,97482.31
2023-03-29T22:21:14.568Z,97476.81
2023-03-29T22:23:43.778Z,97475.78
2023-03-29T22:26:13.560Z,97477.84
2023-03-29T22:28:41.800Z,97470.06
2023-03-29T22:31:15.579Z,97465.44
2023-03-29T22:33:43.347Z,97464.47
2023-03-29T22:36:31.885Z,97470.47
2023-03-29T22:38:59.392Z,97458.34
2023-03-29T22:41:28.336Z,97459.53
2023-03-29T22:43:58.237Z,97456.28
2023-03-29T22:46:26.445Z,97459.69
2023-03-29T22:48:54.006Z,97452.63
2023-03-29T22:51:21.705Z,97452.00
2023-03-29T22:53:49.133Z,97454.44
2023-03-29T22:56:17.316Z,97452.25
2023-03-29T22:58:44.694Z,97448.41
2023-03-29T23:01:12.752Z,97449.81
2023-03-29T23:03:39.982Z,97448.00
2023-03-29T23:06:07.764Z,97444.72
2023-03-29T23:08:35.367Z,97448.84
2023-03-29T23:11:04.116Z,97451.78
2023-03-29T23:13:33.557Z,97450.44
2023-03-29T23:16:03.661Z,97439.16
2023-03-29T23:18:34.812Z,97442.88
2023-03-29T23:21:05.599Z,97438.13
2023-03-29T23:23:33.876Z,97436.50
2023-03-29T23:26:02.533Z,97440.78
2023-03-29T23:28:34.685Z,97434.72
2023-03-29T23:31:11.626Z,97427.53
2023-03-29T23:33:43.008Z,97421.00
2023-03-29T23:36:16.488Z,97421.78
2023-03-29T23:38:45.873Z,97419.38
2023-03-29T23:41:17.815Z,97419.72
2023-03-29T23:43:47.100Z,97414.34
2023-03-29T23:46:17.623Z,97414.03
2023-03-29T23:48:47.291Z,97411.19
2023-03-29T23:51:15.388Z,97404.63
2023-03-29T23:53:42.633Z,97412.69
2023-03-29T23:56:10.127Z,97410.94
2023-03-29T23:58:38.314Z,97410.03
